createdAt,value
2019-05-16T00:19:53.449Z,2.20
2019-05-16T00:22:28.577Z,2.30
2019-05-16T00:36:48.863Z,2.23
2019-05-16T00:39:19.261Z,2.30
2019-05-16T00:41:49.477Z,2.10
2019-05-16T00:44:21.037Z,2.20
2019-05-16T00:47:10.314Z,2.77
2019-05-16T00:49:51.886Z,2.63
2019-05-16T00:52:22.471Z,2.60
2019-05-16T00:55:11.827Z,2.33
2019-05-16T00:58:02.264Z,2.13
2019-05-16T01:00:54.096Z,2.57
2019-05-16T01:03:43.655Z,2.33
2019-05-16T01:06:32.944Z,2.53
2019-05-16T01:09:22.449Z,2.47
2019-05-16T01:12:11.930Z,2.37
2019-05-16T01:14:51.121Z,2.50
2019-05-16T01:17:40.372Z,2.70
2019-05-16T01:20:11.057Z,2.63
2019-05-16T01:23:00.425Z,2.60
2019-05-16T01:25:49.726Z,2.70
2019-05-16T01:28:39.256Z,2.60
2019-05-16T01:31:28.674Z,2.30
2019-05-16T01:34:18.447Z,2.27
2019-05-16T01:37:08.381Z,2.50
2019-05-16T01:39:39.324Z,2.80
2019-05-16T01:42:28.619Z,2.53
2019-05-16T01:45:38.601Z,2.37
2019-05-16T01:48:29.412Z,3.13
2019-05-16T01:51:10.124Z,2.60
2019-05-16T01:53:41.436Z,2.70
2019-05-16T01:56:30.725Z,3.20
2019-05-16T01:59:12.175Z,2.90
2019-05-16T02:01:42.560Z,2.90
2019-05-16T02:04:31.857Z,2.90
2019-05-16T02:07:21.239Z,2.93
2019-05-16T02:10:10.934Z,3.10
2019-05-16T02:12:41.206Z,3.10
2019-05-16T02:15:30.797Z,2.90
2019-05-16T02:18:01.126Z,3.27
2019-05-16T02:20:31.557Z,3.20
2019-05-16T02:23:02.631Z,3.10
2019-05-16T02:25:51.897Z,3.17
2019-05-16T02:28:27.764Z,3.20
2019-05-16T02:30:55.408Z,2.67
2019-05-16T02:36:33.851Z,2.90
2019-05-16T02:39:05.813Z,2.73
2019-05-16T02:41:47.135Z,3.00
2019-05-16T02:47:10.617Z,3.00
2019-05-16T02:49:41.963Z,3.00
2019-05-16T02:52:31.691Z,3.07
2019-05-16T02:55:21.987Z,2.93
2019-05-16T02:57:52.588Z,3.57
2019-05-16T03:00:35.087Z,3.43
2019-05-16T03:03:06.865Z,3.50
2019-05-16T03:05:41.742Z,3.40
2019-05-16T03:08:14.578Z,3.03
2019-05-16T03:10:45.329Z,3.70
2019-05-16T03:13:36.355Z,3.57
2019-05-16T03:16:27.061Z,3.80
2019-05-16T03:22:11.431Z,3.40
2019-05-16T03:25:01.074Z,3.60
2019-05-16T03:27:31.593Z,3.70
2019-05-16T03:30:23.589Z,3.57
2019-05-16T03:32:54.675Z,3.10
2019-05-16T03:35:45.183Z,3.57
2019-05-16T03:38:35.940Z,3.77
2019-05-16T03:41:44.395Z,3.93
2019-05-16T03:44:52.567Z,3.43
2019-05-16T03:47:23.154Z,3.67
2019-05-16T03:50:12.533Z,3.43
2019-05-16T03:55:51.731Z,4.07
2019-05-16T03:58:34.318Z,3.37
2019-05-16T04:01:16.602Z,3.90
2019-05-16T04:03:47.179Z,3.37
2019-05-16T04:06:36.644Z,3.57
2019-05-16T04:09:11.836Z,3.83
2019-05-16T04:11:42.486Z,3.87
2019-05-16T04:14:12.700Z,3.80
2019-05-16T04:16:43.083Z,3.87
2019-05-16T04:19:13.714Z,3.67
2019-05-16T04:21:44.087Z,4.60
2019-05-16T04:24:14.397Z,4.60
2019-05-16T04:26:44.671Z,5.27
2019-05-16T04:29:34.004Z,4.13
2019-05-16T04:32:04.299Z,3.90
2019-05-16T04:34:34.704Z,4.20
2019-05-16T04:37:11.422Z,4.03
2019-05-16T04:40:01.192Z,3.83
2019-05-16T04:42:32.250Z,4.20
2019-05-16T04:45:26.021Z,4.13
2019-05-16T04:48:15.389Z,4.33
2019-05-16T04:51:04.672Z,4.17
2019-05-16T04:53:35.003Z,4.30
2019-05-16T04:56:24.595Z,4.40
2019-05-16T04:58:54.834Z,4.07
2019-05-16T05:01:25.192Z,3.50
2019-05-16T05:04:06.195Z,3.70
2019-05-16T05:06:46.546Z,4.10
2019-05-16T05:09:16.786Z,4.07
2019-05-16T05:11:51.936Z,3.90
2019-05-16T05:14:42.763Z,4.00
2019-05-16T05:17:13.056Z,3.50
2019-05-16T05:19:43.856Z,3.70
2019-05-16T05:22:14.120Z,3.43
2019-05-16T05:24:44.634Z,4.07
2019-05-16T05:27:15.287Z,3.70
2019-05-16T05:29:45.998Z,4.10
2019-05-16T05:32:35.619Z,3.70
2019-05-16T05:38:02.001Z,4.10
2019-05-16T05:40:32.338Z,3.97
2019-05-16T05:43:02.710Z,3.67
2019-05-16T05:45:32.984Z,4.13
2019-05-16T05:48:10.549Z,4.47
2019-05-16T05:50:52.944Z,4.10
2019-05-16T05:53:23.364Z,4.27
2019-05-16T05:55:53.695Z,4.33
2019-05-16T05:58:23.956Z,4.30
2019-05-16T06:00:54.267Z,4.33
2019-05-16T06:03:24.861Z,4.47
2019-05-16T06:08:40.670Z,4.70
2019-05-16T06:11:30.743Z,5.00
2019-05-16T06:14:21.199Z,5.33
2019-05-16T06:16:51.870Z,4.73
2019-05-16T06:19:22.141Z,4.67
2019-05-16T06:21:52.402Z,4.40
2019-05-16T06:24:22.711Z,5.20
2019-05-16T06:27:13.247Z,4.83
2019-05-16T06:29:43.567Z,5.30
2019-05-16T06:32:13.840Z,5.70
2019-05-16T06:35:04.816Z,4.77
2019-05-16T06:38:13.019Z,5.63
2019-05-16T06:41:04.461Z,5.63
2019-05-16T06:43:53.704Z,6.33
2019-05-16T06:46:56.602Z,5.87
2019-05-16T06:49:16.261Z,4.90
2019-05-16T06:52:05.843Z,5.67
2019-05-16T06:54:49.949Z,5.57
2019-05-16T06:57:20.634Z,6.40
2019-05-16T06:59:51.477Z,7.03
2019-05-16T07:02:29.901Z,6.23
2019-05-16T07:08:05.962Z,6.33
2019-05-16T07:10:36.214Z,6.30
2019-05-16T07:13:07.095Z,6.27
2019-05-16T07:15:56.374Z,6.97
2019-05-16T07:18:42.164Z,6.97
2019-05-16T07:21:06.053Z,6.10
2019-05-16T07:23:36.384Z,6.57
2019-05-16T07:29:14.931Z,5.93
2019-05-16T07:31:45.309Z,6.00
2019-05-16T07:34:17.860Z,6.37
2019-05-16T07:36:50.815Z,6.47
2019-05-16T07:39:21.102Z,6.63
2019-05-16T07:42:11.031Z,7.20
2019-05-16T07:45:01.429Z,7.10
2019-05-16T07:47:51.216Z,7.10
2019-05-16T07:50:21.569Z,7.10
2019-05-16T07:52:51.946Z,5.97
2019-05-16T07:55:41.215Z,6.17
2019-05-16T07:58:13.278Z,6.20
2019-05-16T08:00:52.146Z,6.43
2019-05-16T08:03:37.184Z,5.90
2019-05-16T08:06:10.684Z,6.27
2019-05-16T08:09:00.419Z,6.27
2019-05-16T08:11:30.821Z,6.30
2019-05-16T08:14:21.262Z,6.10
2019-05-16T08:17:11.123Z,5.57
2019-05-16T08:22:42.008Z,6.37
2019-05-16T08:25:31.547Z,5.87
2019-05-16T08:28:01.935Z,6.20
2019-05-16T08:30:32.245Z,6.23
2019-05-16T08:33:21.881Z,5.03
2019-05-16T08:38:30.805Z,5.57
2019-05-16T08:41:42.382Z,5.50
2019-05-16T08:44:12.336Z,5.03
2019-05-16T08:47:06.154Z,5.10
2019-05-16T08:49:33.693Z,4.70
2019-05-16T08:52:03.986Z,4.90
2019-05-16T08:54:53.411Z,4.93
2019-05-16T08:57:45.575Z,4.83
2019-05-16T09:00:34.849Z,5.40
2019-05-16T09:03:24.204Z,4.63
2019-05-16T09:05:54.773Z,5.70
2019-05-16T09:08:44.084Z,5.17
2019-05-16T09:11:37.460Z,4.83
2019-05-16T09:14:07.941Z,5.20
2019-05-16T09:16:58.267Z,5.40
2019-05-16T09:19:28.481Z,5.27
2019-05-16T09:21:59.037Z,4.63
2019-05-16T09:24:29.287Z,4.47
2019-05-16T09:26:59.597Z,5.20
2019-05-16T09:29:52.100Z,4.90
2019-05-16T09:32:28.328Z,4.50
2019-05-16T09:35:17.518Z,5.73
2019-05-16T09:37:33.987Z,5.43
2019-05-16T09:40:10.729Z,4.57
2019-05-16T09:46:03.757Z,4.87
2019-05-16T09:48:30.480Z,5.03
2019-05-16T09:51:02.383Z,4.77
2019-05-16T09:53:32.743Z,4.87
2019-05-16T09:56:03.173Z,5.00
2019-05-16T09:58:57.433Z,5.20
2019-05-16T10:01:30.920Z,5.13
2019-05-16T10:04:02.639Z,4.43
2019-05-16T10:06:32.825Z,4.97
2019-05-16T10:09:08.380Z,4.80
2019-05-16T10:12:18.107Z,4.53
2019-05-16T10:14:33.168Z,4.93
2019-05-16T10:17:04.289Z,4.57
2019-05-16T10:22:59.183Z,4.90
2019-05-16T10:25:49.756Z,4.70
2019-05-16T10:28:20.299Z,4.20
2019-05-16T10:31:17.240Z,4.13
2019-05-16T10:34:14.791Z,4.17
2019-05-16T10:37:11.011Z,4.17
2019-05-16T10:39:41.237Z,4.23
2019-05-16T10:42:30.802Z,4.80
2019-05-16T10:45:20.162Z,4.90
2019-05-16T10:47:51.450Z,4.37
2019-05-16T10:50:23.780Z,4.33
2019-05-16T10:53:22.368Z,4.37
2019-05-16T10:55:29.481Z,4.93
2019-05-16T10:57:59.789Z,4.23
2019-05-16T11:01:11.265Z,4.30
2019-05-16T11:06:39.457Z,4.50
2019-05-16T11:09:28.732Z,4.30
2019-05-16T11:12:50.703Z,4.10
2019-05-16T11:15:31.138Z,4.07
2019-05-16T11:18:22.762Z,4.03
2019-05-16T11:21:51.265Z,4.40
2019-05-16T11:24:43.233Z,4.47
2019-05-16T11:27:32.741Z,4.47
2019-05-16T11:30:27.813Z,3.87
2019-05-16T11:36:31.321Z,4.53
2019-05-16T11:39:20.727Z,3.73
2019-05-16T11:42:10.653Z,3.90
2019-05-16T11:45:00.011Z,4.40
2019-05-16T11:47:42.084Z,4.10
2019-05-16T11:50:22.330Z,3.63
2019-05-16T11:53:11.646Z,4.17
2019-05-16T11:56:02.033Z,3.37
2019-05-16T11:59:07.809Z,3.40
2019-05-16T12:01:43.409Z,3.73
2019-05-16T12:04:34.102Z,3.80
2019-05-16T12:07:23.387Z,3.17
2019-05-16T12:10:12.783Z,3.43
2019-05-16T12:13:28.173Z,3.40
2019-05-16T12:16:15.180Z,3.83
2019-05-16T12:19:02.959Z,3.50
2019-05-16T12:21:52.330Z,3.87
2019-05-16T12:24:57.243Z,4.43
2019-05-16T12:30:27.953Z,4.07
2019-05-16T12:32:58.271Z,3.77
2019-05-16T12:35:28.578Z,3.63
2019-05-16T12:38:00.127Z,3.40
2019-05-16T12:40:49.690Z,3.80
2019-05-16T12:43:48.757Z,3.10
2019-05-16T12:46:27.207Z,3.33
2019-05-16T12:48:57.815Z,3.30
2019-05-16T12:51:47.109Z,3.27
2019-05-16T12:54:31.058Z,3.60
2019-05-16T12:57:01.739Z,3.13
2019-05-16T13:00:03.370Z,3.30
2019-05-16T13:02:42.316Z,3.27
2019-05-16T13:05:33.294Z,3.80
2019-05-16T13:15:08.955Z,3.30
2019-05-16T13:21:22.191Z,3.33
2019-05-16T13:24:09.775Z,3.70
2019-05-16T13:29:48.314Z,3.20
2019-05-16T13:32:37.708Z,3.00
2019-05-16T13:35:11.253Z,3.10
2019-05-16T13:37:41.598Z,3.27
2019-05-16T13:40:17.071Z,2.97
2019-05-16T13:42:48.832Z,3.23
2019-05-16T13:45:19.338Z,3.03
2019-05-16T13:47:50.140Z,3.17
2019-05-16T13:51:19.050Z,3.10
2019-05-16T13:53:53.140Z,3.60
2019-05-16T13:56:27.325Z,2.77
2019-05-16T13:59:21.606Z,3.40
2019-05-16T14:01:53.289Z,3.10
2019-05-16T14:04:23.526Z,3.13
2019-05-16T14:06:58.250Z,3.43
2019-05-16T14:09:27.386Z,3.20
2019-05-16T14:11:58.191Z,3.07
2019-05-16T14:14:37.873Z,3.77
2019-05-16T14:17:00.850Z,3.70
2019-05-16T14:19:32.396Z,3.33
2019-05-16T14:22:22.124Z,3.77
2019-05-16T14:24:52.286Z,2.90
2019-05-16T14:28:01.714Z,3.23
2019-05-16T14:30:32.028Z,3.10
2019-05-16T14:33:22.622Z,3.40
2019-05-16T14:38:27.003Z,3.20
2019-05-16T14:44:28.653Z,2.77
2019-05-16T14:47:17.944Z,3.13
2019-05-16T14:50:13.546Z,3.40
2019-05-16T14:52:39.272Z,3.20
2019-05-16T14:55:18.534Z,2.73
2019-05-16T14:57:48.612Z,2.90
2019-05-16T15:00:19.580Z,2.77
2019-05-16T15:02:49.848Z,3.30
2019-05-16T15:05:42.505Z,2.80
2019-05-16T15:11:40.761Z,2.70
2019-05-16T15:14:32.138Z,2.60
2019-05-16T15:17:42.173Z,2.70
2019-05-16T15:23:08.025Z,3.30
2019-05-16T15:25:59.096Z,2.70
2019-05-16T15:28:30.357Z,3.27
2019-05-16T15:34:30.324Z,2.93
2019-05-16T15:37:19.373Z,2.67
2019-05-16T15:39:56.872Z,2.90
2019-05-16T15:42:46.406Z,3.50
2019-05-16T15:45:43.567Z,3.03
2019-05-16T15:48:31.212Z,2.80
2019-05-16T15:51:40.836Z,3.13
2019-05-16T15:57:58.328Z,2.97
2019-05-16T16:03:07.742Z,2.80
2019-05-16T16:05:57.077Z,2.57
2019-05-16T16:08:46.945Z,2.70
2019-05-16T16:11:20.773Z,3.13
2019-05-16T16:14:10.305Z,2.90
2019-05-16T16:16:59.711Z,2.90
2019-05-16T16:19:49.288Z,3.43
2019-05-16T16:22:38.792Z,3.67
2019-05-16T16:25:50.775Z,3.70
2019-05-16T16:31:56.899Z,2.63
2019-05-16T16:34:48.946Z,2.70
2019-05-16T16:40:39.333Z,3.10
2019-05-16T16:43:09.995Z,3.33
2019-05-16T16:45:42.400Z,3.00
2019-05-16T16:48:36.163Z,2.47
2019-05-16T16:51:07.121Z,3.10
2019-05-16T16:56:40.700Z,3.93
2019-05-16T16:59:22.490Z,3.00
2019-05-16T17:02:34.061Z,2.90
2019-05-16T17:05:26.385Z,3.00
2019-05-16T17:08:18.518Z,2.43
2019-05-16T17:11:08.109Z,2.30
2019-05-16T17:13:47.360Z,2.90
2019-05-16T17:16:25.550Z,2.80
2019-05-16T17:18:49.839Z,2.20
2019-05-16T17:21:52.171Z,2.50
2019-05-16T17:24:36.580Z,2.50
2019-05-16T17:27:09.022Z,2.43
2019-05-16T17:30:07.234Z,2.03
2019-05-16T17:32:58.874Z,2.20
2019-05-16T17:36:09.638Z,2.30
2019-05-16T17:38:59.051Z,2.90
2019-05-16T17:41:30.453Z,3.03
2019-05-16T17:44:19.788Z,3.03
2019-05-16T17:47:11.965Z,2.80
2019-05-16T17:49:46.305Z,2.87
2019-05-16T17:52:36.909Z,2.57
2019-05-16T17:55:26.973Z,3.17
2019-05-16T17:57:58.558Z,2.93
2019-05-16T18:00:47.951Z,2.70
2019-05-16T18:03:18.323Z,2.37
2019-05-16T18:06:29.767Z,2.50
2019-05-16T18:12:21.995Z,2.20
2019-05-16T18:15:11.408Z,2.40
2019-05-16T18:17:46.669Z,2.60
2019-05-16T18:20:22.291Z,2.70
2019-05-16T18:22:57.038Z,2.37
2019-05-16T18:29:04.047Z,3.20
2019-05-16T18:31:53.614Z,2.73
2019-05-16T18:37:57.652Z,2.50
2019-05-16T18:40:47.457Z,2.67
2019-05-16T18:46:36.322Z,2.07
2019-05-16T18:52:01.240Z,2.13
2019-05-16T18:54:34.057Z,2.67
2019-05-16T18:57:08.947Z,3.00
2019-05-16T18:59:41.531Z,2.80
2019-05-16T19:02:15.108Z,3.07
2019-05-16T19:04:46.528Z,2.87
2019-05-16T19:08:08.796Z,2.90
2019-05-16T19:11:17.513Z,2.53
2019-05-16T19:14:11.716Z,3.27
2019-05-16T19:16:48.960Z,2.20
2019-05-16T19:19:17.273Z,2.83
2019-05-16T19:21:50.367Z,2.43
2019-05-16T19:27:28.816Z,2.50
2019-05-16T19:30:01.144Z,2.30
2019-05-16T19:32:57.456Z,2.23
2019-05-16T19:35:28.508Z,2.50
2019-05-16T19:38:19.002Z,2.77
2019-05-16T19:41:27.194Z,2.57
2019-05-16T19:44:17.896Z,2.47
2019-05-16T19:47:07.329Z,3.37
2019-05-16T19:50:13.605Z,3.00
2019-05-16T19:52:32.260Z,2.40
2019-05-16T19:55:33.400Z,5.63
2019-05-16T19:58:14.801Z,2.80
2019-05-16T20:00:59.624Z,2.90
2019-05-16T20:03:30.305Z,2.40
2019-05-16T20:06:00.939Z,2.80
2019-05-16T20:09:10.820Z,2.97
2019-05-16T20:11:46.248Z,2.70
2019-05-16T20:14:36.632Z,3.10
2019-05-16T20:17:28.796Z,2.57
2019-05-16T20:20:01.745Z,2.50
2019-05-16T20:22:51.050Z,2.90
2019-05-16T20:25:23.905Z,2.73
2019-05-16T20:28:13.473Z,2.43
2019-05-16T20:30:43.792Z,2.67
2019-05-16T20:33:33.359Z,2.87
2019-05-16T20:36:03.647Z,2.83
2019-05-16T20:38:33.970Z,3.00
2019-05-16T20:41:07.850Z,3.10
2019-05-16T20:43:58.813Z,3.13
2019-05-16T20:46:49.678Z,2.90
2019-05-16T20:49:20.169Z,2.90
2019-05-16T20:52:09.734Z,2.60
2019-05-16T20:55:02.156Z,2.53
2019-05-16T20:57:37.291Z,3.23
2019-05-16T21:00:11.888Z,2.80
2019-05-16T21:02:53.019Z,3.40
2019-05-16T21:05:19.098Z,3.20
2019-05-16T21:07:49.390Z,2.90
2019-05-16T21:13:28.108Z,3.00
2019-05-16T21:16:18.664Z,3.17
2019-05-16T21:22:19.139Z,4.07
2019-05-16T21:25:16.885Z,3.43
2019-05-16T21:28:09.923Z,3.87
2019-05-16T21:30:59.285Z,3.60
2019-05-16T21:33:49.636Z,3.70
2019-05-16T21:36:40.634Z,4.03
2019-05-16T21:39:32.057Z,3.27
2019-05-16T21:42:03.225Z,4.00
2019-05-16T21:44:52.931Z,4.10
2019-05-16T21:47:42.204Z,4.50
2019-05-16T21:50:16.327Z,4.00
2019-05-16T21:53:08.923Z,4.33
2019-05-16T21:55:39.248Z,4.20
2019-05-16T21:58:17.837Z,4.20
2019-05-16T22:01:22.529Z,5.00
2019-05-16T22:04:21.025Z,4.70
2019-05-16T22:06:53.156Z,4.37
2019-05-16T22:09:42.701Z,4.30
2019-05-16T22:12:31.867Z,4.27
2019-05-16T22:15:21.444Z,4.73
2019-05-16T22:18:10.708Z,4.70
2019-05-16T22:21:00.237Z,4.80
2019-05-16T22:23:32.522Z,4.63
2019-05-16T22:29:22.393Z,5.30
2019-05-16T22:32:11.876Z,5.10
2019-05-16T22:34:42.209Z,5.10
2019-05-16T22:37:46.139Z,4.57
2019-05-16T22:40:06.750Z,4.77
2019-05-16T22:42:58.090Z,5.07
2019-05-16T22:46:02.159Z,5.07
2019-05-16T22:48:42.430Z,5.00
2019-05-16T22:51:16.512Z,5.37
2019-05-16T22:54:09.869Z,6.07
2019-05-16T22:56:40.170Z,4.97
2019-05-16T22:59:21.630Z,5.00
2019-05-16T23:02:12.137Z,5.77
2019-05-16T23:04:47.510Z,6.27
2019-05-16T23:07:42.006Z,5.80
2019-05-16T23:10:12.659Z,6.17
2019-05-16T23:12:43.204Z,6.07
2019-05-16T23:15:34.295Z,6.23
2019-05-16T23:20:54.027Z,6.20
2019-05-16T23:23:26.434Z,6.53
2019-05-16T23:25:58.120Z,6.30
2019-05-16T23:28:47.383Z,6.83
2019-05-16T23:31:17.948Z,6.37
2019-05-16T23:34:07.338Z,6.30
2019-05-16T23:36:40.118Z,6.97
2019-05-16T23:39:32.475Z,6.63
2019-05-16T23:42:03.236Z,6.73
2019-05-16T23:44:33.569Z,7.53
2019-05-16T23:47:04.236Z,7.77
2019-05-16T23:49:36.682Z,7.43
2019-05-16T23:52:09.661Z,7.50
2019-05-16T23:55:01.128Z,8.03
2019-05-16T23:57:31.379Z,6.47
